X  Zatvori METAR podaci zračne luke     LDPL Pula Airport
Temperatura
27°C Temperatura
14°C Točka rosišta
45% Vlaga



Vjetar
16 KM/S
10 MPS
4 M/S
9 Čvorovi



290°
ZSZ
Trenutna situacija

Vedro Vedro
Tlak zraka 1014.92 (hPa) - 29.97 (inHg)
Vidljivost 6.2 (milje) - 10 (km)
Zračna luka
Kôd zračne luke LDPL

Lokacija: Pula Airport
Udaljenost: 39 (km)

Metar:
LDPL 250730Z 29009KT 260V320 CAVOK 27/14 Q1015 BECMG 28010KT

Vrijeme: 25-06-2021 09:30 CEST